Time;durP1;ratioP1;P1;durP2;ratioP2;P2;SDS_P1;SDS_P2;PMS_P1;PMS_P2;Temp;Humidity;BMP_temperature;BMP_pressure;BME280_temperature;BME280_humidity;BME280_pressure;Samples;Min_cycle;Max_cycle;Signal;HPM_P1;HPM_P2
2020/12/17 00:04:36;;;;;;;42.77;19.77;;;;;;;6.79;91.26;101366.01;3600307;80;98532;-83
2020/12/17 00:09:37;;;;;;;44.93;19.50;;;;;;;6.85;91.37;101349.09;3616045;80;25973;-83
2020/12/17 00:14:38;;;;;;;48.90;23.13;;;;;;;6.89;91.21;101355.52;3610005;78;98908;-84
2020/12/17 00:19:39;;;;;;;48.07;22.63;;;;;;;6.89;91.48;101350.05;3621275;80;25883;-84
2020/12/17 00:24:40;;;;;;;51.83;24.37;;;;;;;6.92;91.35;101344.47;3618410;80;98958;-84
2020/12/17 00:29:41;;;;;;;47.53;22.37;;;;;;;6.87;91.38;101352.28;3609620;80;26395;-83
2020/12/17 00:34:41;;;;;;;40.80;20.53;;;;;;;6.87;91.42;101353.66;3606695;80;98761;-84
2020/12/17 00:39:44;;;;;;;41.70;20.37;;;;;;;6.81;91.30;101353.61;3620259;80;33489;-83
2020/12/17 00:44:45;;;;;;;46.83;23.33;;;;;;;6.73;91.53;101355.02;3614671;80;98510;-84
2020/12/17 00:49:46;;;;;;;52.77;22.87;;;;;;;6.67;91.80;101351.67;3619369;80;33060;-82
2020/12/17 00:54:47;;;;;;;51.53;21.93;;;;;;;6.71;92.00;101345.77;3614074;80;98783;-83
2020/12/17 00:59:48;;;;;;;54.63;24.33;;;;;;;6.79;92.10;101331.81;3615834;80;32937;-83
2020/12/17 01:04:49;;;;;;;56.60;25.60;;;;;;;6.83;92.20;101332.18;3614610;79;98910;-85
2020/12/17 01:09:50;;;;;;;62.13;25.73;;;;;;;6.86;92.19;101334.27;3555164;81;33116;-84
2020/12/17 01:14:51;;;;;;;57.80;24.93;;;;;;;6.84;92.26;101329.70;3540246;81;98882;-83
2020/12/17 01:19:52;;;;;;;53.57;22.77;;;;;;;6.80;92.21;101326.02;3552047;81;31843;-84
2020/12/17 01:24:53;;;;;;;54.87;22.77;;;;;;;6.70;92.31;101326.97;3492240;81;98726;-84
2020/12/17 01:29:54;;;;;;;52.70;21.40;;;;;;;6.58;92.71;101326.84;3513006;82;32982;-84
2020/12/17 01:34:55;;;;;;;58.93;22.70;;;;;;;6.52;93.08;101328.97;3471992;82;98886;-84
2020/12/17 01:39:56;;;;;;;70.40;26.30;;;;;;;6.52;93.45;101321.31;3528328;81;31760;-85
2020/12/17 01:44:57;;;;;;;84.53;32.30;;;;;;;6.53;93.78;101321.55;3524795;81;98483;-85
2020/12/17 01:49:57;;;;;;;83.03;31.80;;;;;;;6.55;94.07;101320.09;3530608;82;31786;-84
2020/12/17 01:55:00;;;;;;;92.30;36.03;;;;;;;6.61;94.17;101309.78;3526038;81;98836;-84
2020/12/17 02:00:06;;;;;;;84.17;32.53;;;;;;;6.64;94.01;101300.34;3526283;82;33166;-85
2020/12/17 02:05:07;;;;;;;73.23;28.30;;;;;;;6.59;94.01;101298.34;3520157;81;98490;-85
2020/12/17 02:10:08;;;;;;;70.00;29.07;;;;;;;6.60;94.08;101301.34;3527617;82;31713;-84
2020/12/17 02:15:09;;;;;;;69.37;25.33;;;;;;;6.49;94.32;101299.53;3526335;82;98443;-85
2020/12/17 02:20:11;;;;;;;65.60;25.83;;;;;;;6.46;94.32;101301.56;3529058;82;31704;-84
2020/12/17 02:25:14;;;;;;;65.67;28.27;;;;;;;6.50;94.46;101305.81;3569533;79;98912;-84
2020/12/17 02:30:16;;;;;;;68.67;26.03;;;;;;;6.46;94.60;101310.33;3603160;80;32605;-84
2020/12/17 02:35:16;;;;;;;65.23;26.17;;;;;;;6.55;94.62;101306.41;3601765;80;98716;-84
2020/12/17 02:40:17;;;;;;;66.77;26.73;;;;;;;6.60;94.68;101309.55;3609905;80;32197;-83
2020/12/17 02:45:18;;;;;;;76.03;31.63;;;;;;;6.62;94.57;101308.09;3602939;80;98704;-84
2020/12/17 02:50:19;;;;;;;84.97;32.13;;;;;;;6.70;94.53;101302.34;3610515;80;31806;-83
2020/12/17 02:55:20;;;;;;;86.57;34.77;;;;;;;6.70;94.32;101307.23;3598229;80;98751;-84
2020/12/17 03:00:21;;;;;;;91.50;32.23;;;;;;;6.63;94.22;101319.27;3604373;80;32150;-85
2020/12/17 03:05:22;;;;;;;73.60;30.23;;;;;;;6.54;94.42;101321.81;3598318;79;98767;-84
2020/12/17 03:10:23;;;;;;;77.50;30.27;;;;;;;6.57;94.41;101315.11;3609201;80;31959;-84
2020/12/17 03:15:24;;;;;;;78.90;31.70;;;;;;;6.59;94.58;101322.96;3576239;81;98894;-84
2020/12/17 03:20:25;;;;;;;77.17;35.43;;;;;;;6.64;94.50;101319.50;3575824;81;35001;-84
2020/12/17 03:25:26;;;;;;;86.33;34.40;;;;;;;6.71;94.45;101321.14;3566502;81;98758;-84
2020/12/17 03:30:27;;;;;;;80.20;33.60;;;;;;;6.74;94.22;101315.02;3565015;81;35091;-84
2020/12/17 03:35:28;;;;;;;82.90;35.10;;;;;;;6.75;94.18;101311.16;3558954;81;98491;-84
2020/12/17 03:40:29;;;;;;;81.03;33.77;;;;;;;6.72;93.99;101306.33;3552199;81;35027;-84
2020/12/17 03:45:30;;;;;;;75.37;31.63;;;;;;;6.66;93.84;101306.87;3563007;80;98826;-84
2020/12/17 03:50:31;;;;;;;73.67;31.43;;;;;;;6.63;93.89;101308.33;3553241;81;35019;-84
2020/12/17 03:55:32;;;;;;;69.58;30.97;;;;;;;6.62;93.93;101308.09;3566966;81;99025;-83
2020/12/17 04:00:33;;;;;;;69.30;30.60;;;;;;;6.64;93.98;101311.29;3567101;81;35482;-83
2020/12/17 04:05:34;;;;;;;67.83;29.07;;;;;;;6.67;94.00;101305.17;3563521;81;98834;-84
2020/12/17 04:10:35;;;;;;;74.07;34.50;;;;;;;6.68;93.94;101295.02;3570351;81;34894;-83
2020/12/17 04:15:36;;;;;;;81.85;32.17;;;;;;;6.63;93.86;101300.67;3573490;81;98739;-85
2020/12/17 04:20:37;;;;;;;77.40;35.47;;;;;;;6.69;94.09;101298.80;3575670;81;32736;-84
2020/12/17 04:25:38;;;;;;;72.67;31.53;;;;;;;6.71;93.80;101298.47;3567645;81;98522;-85
2020/12/17 04:30:39;;;;;;;78.57;35.40;;;;;;;6.72;93.75;101301.44;3581273;81;32618;-84
2020/12/17 04:35:41;;;;;;;70.33;32.77;;;;;;;6.70;93.63;101305.08;3575948;81;98356;-85
2020/12/17 04:40:42;;;;;;;71.60;29.83;;;;;;;6.57;93.63;101310.20;3575848;81;33119;-85
2020/12/17 04:45:46;;;;;;;77.55;31.77;;;;;;;6.53;93.73;101303.22;3568468;81;99091;-84
2020/12/17 04:50:47;;;;;;;75.47;32.83;;;;;;;6.55;93.86;101313.84;3569293;81;32744;-84
2020/12/17 04:55:49;;;;;;;72.83;30.60;;;;;;;6.55;93.89;101315.20;3587511;81;98504;-82
2020/12/17 05:00:56;;;;;;;70.13;29.47;;;;;;;6.62;93.89;101312.20;3552760;81;32714;-83
2020/12/17 05:06:00;;;;;;;61.57;27.13;;;;;;;6.68;93.78;101315.53;3564830;81;98908;-83
2020/12/17 05:11:03;;;;;;;65.80;31.70;;;;;;;6.69;93.92;101303.45;3571687;81;34744;-82
2020/12/17 05:16:05;;;;;;;76.77;33.63;;;;;;;6.82;93.62;101310.06;3576594;81;98498;-83
2020/12/17 05:21:09;;;;;;;78.53;34.97;;;;;;;6.67;93.42;101303.80;3575029;81;32816;-83
2020/12/17 05:26:10;;;;;;;92.97;38.00;;;;;;;6.56;93.50;101303.12;3570174;81;98213;-85
2020/12/17 05:31:20;;;;;;;82.67;34.20;;;;;;;6.42;93.69;101303.34;3581100;81;33251;-83
2020/12/17 05:36:25;;;;;;;80.85;31.82;;;;;;;6.41;93.92;101303.66;3575555;81;98489;-84
2020/12/17 05:41:26;;;;;;;79.07;30.50;;;;;;;6.36;93.96;101301.11;3580709;81;26483;-84
2020/12/17 05:46:43;;;;;;;84.60;34.10;;;;;;;6.44;94.06;101302.44;3585377;81;98893;-83
2020/12/17 05:51:45;;;;;;;65.57;30.57;;;;;;;6.57;94.05;101303.36;3570297;81;32744;-84
2020/12/17 05:56:48;;;;;;;72.23;32.43;;;;;;;6.50;93.74;101292.92;3576893;81;98622;-84
2020/12/17 06:01:49;;;;;;;77.50;33.97;;;;;;;6.49;93.77;101301.48;3578455;81;32764;-83
2020/12/17 06:06:50;;;;;;;75.50;33.93;;;;;;;6.41;93.85;101293.55;3564926;81;98875;-83
2020/12/17 06:11:54;;;;;;;74.43;31.83;;;;;;;6.32;93.97;101291.40;3570133;81;33270;-83
2020/12/17 06:16:57;;;;;;;64.47;28.20;;;;;;;6.26;94.27;101286.43;3544460;81;98774;-83
2020/12/17 06:21:58;;;;;;;58.00;26.53;;;;;;;6.32;94.24;101293.34;3565986;81;26226;-83
2020/12/17 06:27:01;;;;;;;52.63;26.93;;;;;;;6.38;94.37;101296.14;3523050;81;98525;-84
2020/12/17 06:32:06;;;;;;;54.30;24.87;;;;;;;6.39;94.25;101298.52;3503217;82;33186;-82
2020/12/17 06:37:10;;;;;;;59.70;26.60;;;;;;;6.49;94.30;101294.64;3443126;83;99021;-83
2020/12/17 06:42:36;;;;;;;61.93;30.23;;;;;;;6.49;94.00;101292.69;3488343;83;32714;-83
2020/12/17 06:47:37;;;;;;;59.80;28.30;;;;;;;6.54;93.94;101290.36;3497083;82;98393;-82
2020/12/17 06:53:00;;;;;;;61.40;27.47;;;;;;;6.53;93.74;101285.44;3528913;82;32709;-83
2020/12/17 06:58:01;;;;;;;55.38;24.05;;;;;;;6.40;93.76;101285.66;3515033;82;98177;-82
2020/12/17 07:03:02;;;;;;;53.10;25.17;;;;;;;6.33;94.04;101286.75;3507380;83;33135;-84
2020/12/17 07:08:03;;;;;;;54.87;25.67;;;;;;;6.28;93.97;101284.98;3533549;81;98832;-82
2020/12/17 07:13:04;;;;;;;53.30;24.87;;;;;;;6.30;94.10;101278.63;3529958;81;32826;-83
2020/12/17 07:18:23;;;;;;;53.93;24.87;;;;;;;6.37;94.04;101273.45;3532962;81;98417;-82
2020/12/17 07:23:32;;;;;;;54.93;26.87;;;;;;;6.41;93.85;101276.33;3532216;82;32744;-82
2020/12/17 07:28:32;;;;;;;51.73;24.20;;;;;;;6.48;93.85;101277.42;3598442;80;98350;-83
2020/12/17 07:33:40;;;;;;;55.43;26.37;;;;;;;6.50;93.71;101277.87;3599939;80;32869;-83
2020/12/17 07:38:41;;;;;;;50.87;23.33;;;;;;;6.50;93.62;101284.72;3556046;81;98134;-83
2020/12/17 07:43:42;;;;;;;50.73;23.67;;;;;;;6.46;93.51;101287.08;3559471;81;32782;-83
2020/12/17 07:48:50;;;;;;;50.73;24.93;;;;;;;6.48;93.57;101286.17;3560149;80;98650;-83
2020/12/17 07:53:52;;;;;;;48.30;23.03;;;;;;;6.54;93.51;101297.98;3553607;81;33274;-83
2020/12/17 07:58:53;;;;;;;55.90;27.03;;;;;;;6.63;93.46;101291.09;3537380;81;98560;-82
2020/12/17 08:03:54;;;;;;;64.70;29.83;;;;;;;6.71;92.99;101294.37;3583798;81;33699;-81
2020/12/17 08:08:59;;;;;;;57.80;28.02;;;;;;;6.69;92.98;101300.16;3575236;81;98966;-83
2020/12/17 08:14:07;;;;;;;61.83;28.17;;;;;;;6.64;92.75;101298.16;3582232;81;32643;-82
2020/12/17 08:19:08;;;;;;;67.60;28.47;;;;;;;6.54;92.78;101293.88;3580388;80;98328;-82
2020/12/17 08:24:09;;;;;;;61.53;28.13;;;;;;;6.48;93.05;101295.75;3590419;80;32710;-83
2020/12/17 08:29:10;;;;;;;59.60;26.23;;;;;;;6.52;93.16;101298.07;3586646;80;32718;-84
2020/12/17 08:34:13;;;;;;;69.77;28.60;;;;;;;6.56;93.16;101299.84;3579777;80;98804;-83
2020/12/17 08:39:18;;;;;;;65.63;27.73;;;;;;;6.68;93.03;101300.48;3586631;80;32732;-82
2020/12/17 08:44:26;;;;;;;64.63;28.53;;;;;;;6.74;93.04;101299.16;3580149;80;98720;-83
2020/12/17 08:49:29;;;;;;;63.83;28.33;;;;;;;6.89;92.84;101311.73;3587568;79;26546;-87
2020/12/17 08:54:33;;;;;;;66.30;31.77;;;;;;;6.99;92.73;101311.33;3587929;78;98575;-87
2020/12/17 08:59:35;;;;;;;65.30;29.50;;;;;;;7.01;92.23;101312.36;3586622;80;26528;-86
2020/12/17 09:04:37;;;;;;;57.30;27.57;;;;;;;6.96;92.29;101313.38;3571655;80;98649;-86
2020/12/17 09:09:39;;;;;;;56.83;27.57;;;;;;;7.00;92.34;101312.95;3600054;80;32895;-88
2020/12/17 09:14:40;;;;;;;60.33;28.65;;;;;;;6.94;92.20;101305.26;3584895;80;101459;-87
2020/12/17 09:19:43;;;;;;;61.73;27.17;;;;;;;6.95;92.35;101314.51;3586435;80;33254;-87
2020/12/17 09:24:54;;;;;;;67.90;31.10;;;;;;;7.07;92.15;101303.64;3582384;80;98579;-87
2020/12/17 09:30:14;;;;;;;57.00;26.07;;;;;;;7.12;91.96;101303.45;3586113;80;32828;-86
2020/12/17 09:35:15;;;;;;;73.35;31.57;;;;;;;7.20;91.82;101303.16;3570450;80;98696;-84
2020/12/17 09:40:21;;;;;;;72.10;31.93;;;;;;;7.29;91.86;101312.09;3576293;80;32760;-84
2020/12/17 09:45:21;;;;;;;73.77;32.53;;;;;;;7.33;91.50;101315.22;3579126;80;98811;-83
2020/12/17 09:50:22;;;;;;;62.90;29.67;;;;;;;7.26;91.23;101308.66;3586733;80;33841;-82
2020/12/17 09:55:23;;;;;;;61.70;28.92;;;;;;;7.20;91.36;101305.31;3575311;80;98881;-84
2020/12/17 10:00:24;;;;;;;72.37;33.43;;;;;;;7.19;91.36;101310.55;3581757;80;32762;-83
2020/12/17 10:05:24;;;;;;;53.23;28.13;;;;;;;7.24;91.49;101304.88;3579325;78;98676;-86
2020/12/17 10:10:26;;;;;;;54.67;27.87;;;;;;;7.40;91.49;101288.64;3568431;80;32734;-84
2020/12/17 10:15:28;;;;;;;58.53;27.57;;;;;;;7.50;91.08;101271.25;3573511;80;98547;-85
2020/12/17 10:20:30;;;;;;;69.67;32.43;;;;;;;7.62;90.72;101271.85;3576471;80;32807;-86
2020/12/17 10:25:31;;;;;;;72.43;34.73;;;;;;;7.65;90.73;101272.56;3578031;80;98841;-85
2020/12/17 10:30:32;;;;;;;58.43;29.30;;;;;;;7.68;90.51;101263.69;3562502;81;33231;-86
2020/12/17 10:35:33;;;;;;;52.97;26.50;;;;;;;7.62;89.95;101256.23;3506751;81;98575;-86
2020/12/17 10:40:38;;;;;;;56.20;27.50;;;;;;;7.52;89.80;101242.95;3474985;83;32757;-85
2020/12/17 10:45:38;;;;;;;51.67;24.67;;;;;;;7.53;89.82;101240.44;3519778;81;98748;-83
2020/12/17 10:50:39;;;;;;;44.77;21.90;;;;;;;7.59;89.75;101253.36;3528718;81;33621;-84
2020/12/17 10:55:40;;;;;;;36.70;19.33;;;;;;;7.67;88.87;101246.43;3519533;82;98769;-84
2020/12/17 11:00:41;;;;;;;34.93;17.83;;;;;;;7.65;88.83;101237.76;3515326;82;32752;-83
2020/12/17 11:05:42;;;;;;;29.27;15.50;;;;;;;7.65;88.38;101243.23;3517859;81;99040;-83
2020/12/17 11:10:43;;;;;;;37.90;18.73;;;;;;;7.60;88.08;101248.92;3462618;83;32803;-83
2020/12/17 11:15:44;;;;;;;34.10;17.13;;;;;;;7.51;87.59;101237.24;3550516;81;98569;-84
2020/12/17 11:20:48;;;;;;;30.00;15.33;;;;;;;7.41;88.09;101246.45;3527454;81;32761;-87
2020/12/17 11:25:50;;;;;;;32.37;15.73;;;;;;;7.40;87.85;101251.67;3451477;82;98906;-86
2020/12/17 11:30:50;;;;;;;32.23;16.30;;;;;;;7.44;88.07;101236.99;3527247;82;33658;-85
2020/12/17 11:35:53;;;;;;;30.87;15.50;;;;;;;7.56;87.97;101230.19;3530891;82;98816;-86
2020/12/17 11:40:54;;;;;;;34.43;16.80;;;;;;;7.59;87.21;101230.08;3556381;81;26922;-89
2020/12/17 11:45:55;;;;;;;35.87;18.77;;;;;;;7.63;87.09;101226.91;3537939;82;98623;-87
2020/12/17 11:50:56;;;;;;;36.73;20.63;;;;;;;7.59;87.15;101212.28;3552400;81;32659;-86
2020/12/17 11:55:58;;;;;;;41.83;22.50;;;;;;;7.51;86.81;101207.67;3553288;81;98892;-86
2020/12/17 12:01:04;;;;;;;38.67;20.60;;;;;;;7.48;86.80;101188.60;3547886;81;32692;-85
2020/12/17 12:06:05;;;;;;;41.83;23.40;;;;;;;7.48;86.99;101194.08;3543180;81;98729;-86
2020/12/17 12:11:05;;;;;;;43.57;24.57;;;;;;;7.62;86.90;101172.67;3551522;81;33298;-86
2020/12/17 12:16:06;;;;;;;43.50;25.67;;;;;;;7.72;86.49;101174.98;3552047;81;98631;-85
2020/12/17 12:21:11;;;;;;;47.30;26.93;;;;;;;7.76;86.35;101179.21;3547640;81;32765;-85
2020/12/17 12:26:13;;;;;;;47.15;26.52;;;;;;;7.77;85.76;101176.70;3547004;81;98599;-86
2020/12/17 12:31:18;;;;;;;46.03;26.30;;;;;;;7.62;84.99;101168.56;3530536;82;26036;-85
2020/12/17 12:36:20;;;;;;;45.67;24.70;;;;;;;7.47;85.07;101167.05;3516692;81;98945;-85
2020/12/17 12:41:21;;;;;;;43.20;25.47;;;;;;;7.38;84.78;101181.39;3518172;82;32907;-86
2020/12/17 12:46:22;;;;;;;45.17;25.00;;;;;;;7.33;85.35;101172.83;3533931;82;98816;-85
2020/12/17 12:51:33;;;;;;;43.23;23.42;;;;;;;7.37;85.45;101169.63;3531271;82;32659;-85
2020/12/17 12:56:34;;;;;;;46.18;25.25;;;;;;;7.42;85.10;101181.73;3521537;82;98482;-85
2020/12/17 13:01:37;;;;;;;50.47;25.93;;;;;;;7.39;85.03;101169.30;3527537;82;33217;-86
2020/12/17 13:06:38;;;;;;;49.73;25.53;;;;;;;7.37;84.69;101162.00;3528569;82;98512;-84
2020/12/17 13:11:38;;;;;;;48.67;26.90;;;;;;;7.29;84.48;101173.81;3525416;82;32799;-86
2020/12/17 13:16:41;;;;;;;42.47;23.50;;;;;;;7.17;84.67;101160.90;3520777;82;98801;-86
2020/12/17 13:21:51;;;;;;;41.67;22.03;;;;;;;7.08;84.53;101169.75;3536077;82;33233;-86
2020/12/17 13:26:45;;;;;;;44.40;22.85;;;;;;;7.00;84.82;101165.72;3525914;81;98592;-86
2020/12/17 13:31:46;;;;;;;41.57;21.47;;;;;;;6.94;84.93;101154.19;3571550;81;32735;-84
2020/12/17 13:36:47;;;;;;;44.43;23.50;;;;;;;6.91;84.89;101152.11;3570463;81;98926;-87
2020/12/17 13:41:52;;;;;;;44.93;23.27;;;;;;;6.95;84.79;101144.84;3575345;81;32804;-85
2020/12/17 13:46:58;;;;;;;45.70;24.73;;;;;;;6.99;84.55;101147.12;3561270;81;98481;-86
2020/12/17 13:51:59;;;;;;;;;;;;;;;6.96;84.36;101150.55;3574265;81;25926;-85
2020/12/17 13:57:08;;;;;;;184.17;108.47;;;;;;;6.89;83.96;101141.27;3564448;81;84570;-87
2020/12/17 14:02:10;;;;;;;71.37;41.53;;;;;;;6.81;84.33;101138.83;3575190;81;33217;-88
2020/12/17 14:07:11;;;;;;;58.27;32.10;;;;;;;6.69;84.39;101139.33;3557854;81;98650;-89
2020/12/17 14:12:12;;;;;;;51.97;25.07;;;;;;;6.57;84.55;101152.39;3562195;81;33547;-89
2020/12/17 14:17:13;;;;;;;47.23;24.93;;;;;;;6.47;84.51;101160.98;3559406;81;98297;-89
2020/12/17 14:22:14;;;;;;;47.20;22.97;;;;;;;6.45;84.26;101163.81;3561414;81;32863;-88
2020/12/17 14:27:15;;;;;;;42.87;24.47;;;;;;;6.46;84.32;101168.95;3555304;81;98468;-88
2020/12/17 14:32:16;;;;;;;46.30;23.63;;;;;;;6.48;84.02;101169.96;3570885;81;32687;-90
2020/12/17 14:37:17;;;;;;;52.48;27.87;;;;;;;6.50;84.12;101182.75;3568959;81;98787;-88
2020/12/17 14:42:18;;;;;;;55.53;27.47;;;;;;;6.47;83.96;101168.37;3570830;81;32671;-88
2020/12/17 14:47:19;;;;;;;47.40;24.23;;;;;;;6.27;83.67;101148.65;3564745;81;98534;-87
2020/12/17 14:52:20;;;;;;;44.75;22.22;;;;;;;6.24;83.89;101163.78;3576158;81;32712;-85
2020/12/17 14:57:21;;;;;;;55.10;25.37;;;;;;;6.14;84.01;101160.60;3553826;81;98627;-88
2020/12/17 15:02:22;;;;;;;46.47;24.03;;;;;;;6.01;84.21;101156.96;3573909;81;26362;-90
2020/12/17 15:07:23;;;;;;;36.23;18.57;;;;;;;5.94;84.34;101162.14;3563744;81;98531;-89
2020/12/17 15:12:24;;;;;;;39.97;20.17;;;;;;;5.94;84.58;101170.34;3565952;81;25985;-89
2020/12/17 15:17:25;;;;;;;36.30;19.73;;;;;;;5.97;84.70;101179.26;3588921;80;98474;-90
2020/12/17 15:22:25;;;;;;;48.77;25.50;;;;;;;6.03;84.59;101189.42;3592919;80;26363;-90
2020/12/17 15:27:26;;;;;;;56.87;26.27;;;;;;;6.06;84.59;101190.16;3585804;79;98864;-88
2020/12/17 15:32:27;;;;;;;53.03;25.13;;;;;;;6.03;84.17;101192.97;3555999;81;26126;-88
2020/12/17 15:37:28;;;;;;;52.70;26.47;;;;;;;5.91;84.36;101186.59;3549619;82;98793;-89
2020/12/17 15:42:29;;;;;;;62.90;31.33;;;;;;;5.78;84.56;101180.17;3603630;78;56278;-94
2020/12/17 15:52:34;;;;;;;62.00;27.33;;;;;;;5.56;85.11;101163.23;3537337;81;33514;-86
2020/12/17 15:57:35;;;;;;;47.20;23.57;;;;;;;5.50;85.40;101178.16;3506842;82;98715;-85
2020/12/17 16:02:36;;;;;;;59.17;29.30;;;;;;;5.51;85.62;101173.75;3536596;81;33078;-86
2020/12/17 16:07:38;;;;;;;49.30;25.27;;;;;;;5.56;85.70;101153.09;3527940;81;98455;-86
2020/12/17 16:12:41;;;;;;;51.30;25.80;;;;;;;5.62;85.72;101158.61;3539900;81;33401;-88
2020/12/17 16:17:55;;;;;;;56.80;26.23;;;;;;;5.68;85.66;101155.16;3565458;81;98325;-87
2020/12/17 16:23:05;;;;;;;53.23;25.23;;;;;;;5.65;85.52;101168.91;3572451;81;32971;-87
2020/12/17 16:28:27;;;;;;;52.50;25.87;;;;;;;5.53;85.59;101171.52;3440609;82;98154;-88
2020/12/17 16:33:29;;;;;;;50.07;24.93;;;;;;;5.44;85.74;101163.89;3506628;78;53645;-93
2020/12/17 16:38:30;;;;;;;47.30;24.57;;;;;;;5.33;85.85;101180.92;3450171;84;98491;-95
2020/12/17 16:43:31;;;;;;;61.23;27.53;;;;;;;5.24;86.10;101184.25;3447125;84;32795;-94
2020/12/17 16:48:32;;;;;;;46.73;21.87;;;;;;;5.21;86.22;101187.06;3425634;84;98341;-94
2020/12/17 16:53:35;;;;;;;46.00;21.70;;;;;;;5.20;86.35;101190.11;3448325;80;33813;-94
2020/12/17 16:58:36;;;;;;;40.58;21.37;;;;;;;5.21;86.41;101202.07;3526385;82;98946;-93
2020/12/17 17:03:37;;;;;;;45.93;22.20;;;;;;;5.26;86.30;101213.37;3541716;82;33587;-94
2020/12/17 17:08:38;;;;;;;48.30;24.40;;;;;;;5.19;86.27;101217.16;3535701;82;98302;-95
2020/12/17 17:13:39;;;;;;;49.03;24.50;;;;;;;5.12;86.28;101209.45;3519351;82;33604;-95
2020/12/17 17:18:39;;;;;;;50.03;25.10;;;;;;;4.99;86.43;101193.23;3539588;82;98457;-96
2020/12/17 17:23:40;;;;;;;50.93;25.23;;;;;;;4.89;86.56;101197.09;3533831;82;33067;-95
2020/12/17 17:28:41;;;;;;;44.10;20.50;;;;;;;4.77;86.87;101194.20;3536393;82;98165;-95
2020/12/17 17:33:42;;;;;;;53.93;26.20;;;;;;;4.70;87.12;101202.03;3538609;82;33121;-96
2020/12/17 17:38:43;;;;;;;61.27;27.53;;;;;;;4.70;87.35;101194.44;3523627;82;98577;-96
2020/12/17 17:43:44;;;;;;;54.97;25.13;;;;;;;4.73;87.52;101185.05;3541060;82;32067;-95
2020/12/17 17:49:29;;;;;;;66.87;29.00;;;;;;;4.83;87.57;101179.84;3530570;82;98862;-96
2020/12/17 17:54:32;;;;;;;58.67;27.03;;;;;;;4.96;87.59;101186.50;3513967;81;98909;-95
2020/12/17 17:59:37;;;;;;;61.03;29.23;;;;;;;5.04;87.39;101187.62;3449824;83;25954;-94
2020/12/17 18:04:38;;;;;;;61.02;30.55;;;;;;;5.02;87.32;101201.58;3441043;82;98402;-94
2020/12/17 18:09:39;;;;;;;63.00;30.13;;;;;;;4.92;87.21;101205.98;3452460;84;32255;-95
2020/12/17 18:14:40;;;;;;;49.67;26.90;;;;;;;4.84;87.46;101213.61;3440135;84;98403;-96
2020/12/17 18:19:41;;;;;;;52.23;26.47;;;;;;;4.81;87.56;101224.36;3395779;85;31787;-95
2020/12/17 18:24:42;;;;;;;49.42;26.57;;;;;;;4.84;87.74;101220.98;3404514;83;99089;-95
2020/12/17 18:29:43;;;;;;;51.97;25.87;;;;;;;4.90;87.73;101224.61;3466742;83;29716;-96
2020/12/17 18:34:43;;;;;;;48.13;25.08;;;;;;;4.95;87.70;101225.81;3449393;84;100872;-96
2020/12/17 18:39:44;;;;;;;56.00;27.00;;;;;;;5.04;87.68;101219.00;3395733;84;29056;-96
2020/12/17 18:44:45;;;;;;;56.77;27.97;;;;;;;5.09;87.56;101223.75;3395522;83;99444;-95
2020/12/17 18:49:51;;;;;;;59.93;29.90;;;;;;;5.10;87.47;101212.26;3392678;84;35056;-94
2020/12/17 18:54:49;;;;;;;54.03;24.80;;;;;;;5.06;87.39;101217.55;3363217;86;99335;-93
2020/12/17 18:59:50;;;;;;;51.33;24.57;;;;;;;5.00;87.54;101214.75;3368573;86;35084;-96
2020/12/17 19:04:53;;;;;;;44.77;22.07;;;;;;;5.02;87.64;101217.16;3332064;86;99427;-95
2020/12/17 19:09:56;;;;;;;48.17;22.27;;;;;;;5.07;87.70;101221.09;3410290;79;56268;-96
2020/12/17 19:14:58;;;;;;;43.45;22.77;;;;;;;5.16;87.72;101216.42;3465945;82;98488;-96
2020/12/17 19:20:02;;;;;;;52.43;25.50;;;;;;;5.24;87.60;101214.27;3510652;81;54326;-83
2020/12/17 19:25:06;;;;;;;48.43;24.27;;;;;;;5.29;87.42;101211.38;3490580;81;98385;-83
2020/12/17 19:30:25;;;;;;;47.67;22.80;;;;;;;5.20;87.24;101214.11;3546896;81;34970;-83
2020/12/17 19:35:46;;;;;;;;;;;;;;;;;;;;;
2020/12/17 19:41:09;;;;;;;;;;;;;;;;;;;;;
2020/12/17 19:51:48;;;;;;;;;;;;;;;;;;;;;
2020/12/17 19:57:00;;;;;;;43.13;22.57;;;;;;;5.20;87.47;101220.13;3357111;85;98861;-83
2020/12/17 20:02:23;;;;;;;47.93;23.70;;;;;;;5.17;87.41;101220.75;3420483;85;35108;-82
2020/12/17 20:22:54;;;;;;;52.87;24.87;;;;;;;5.14;87.74;101232.33;3583196;81;35096;-96
2020/12/17 20:27:55;;;;;;;53.97;26.07;;;;;;;5.23;87.66;101229.05;3660845;78;98491;-96
2020/12/17 20:38:06;;;;;;;52.27;24.98;;;;;;;5.38;87.29;101233.98;3648044;79;31759;-96
2020/12/17 20:43:07;;;;;;;54.73;26.03;;;;;;;5.34;87.15;101230.32;3586505;81;35026;-96
2020/12/17 20:48:13;;;;;;;51.17;28.63;;;;;;;5.30;87.13;101227.98;3520417;82;98752;-96
2020/12/17 20:53:15;;;;;;;59.75;27.37;;;;;;;5.25;87.09;101226.78;3555139;80;26068;-96
2020/12/17 20:58:16;;;;;;;48.87;25.67;;;;;;;5.18;87.22;101245.58;3520191;82;98452;-96
2020/12/17 21:03:19;;;;;;;57.57;26.47;;;;;;;5.14;87.38;101245.97;3557792;82;35091;-96
2020/12/17 21:08:20;;;;;;;47.13;23.33;;;;;;;5.14;87.46;101253.58;3520706;82;98354;-96
2020/12/17 21:18:50;;;;;;;54.60;23.15;;;;;;;5.34;87.68;101256.25;3611675;79;29913;-84
2020/12/17 21:29:50;;;;;;;;;;;;;;;;;;;;;
2020/12/17 21:34:40;;;;;;;43.93;23.77;;;;;;;5.53;87.25;101260.25;3374388;83;98383;-96
2020/12/17 21:39:41;;;;;;;45.17;22.60;;;;;;;5.48;87.20;101263.14;3526023;82;35550;-95
2020/12/17 21:44:42;;;;;;;41.70;20.53;;;;;;;5.36;87.28;101262.17;3582924;81;98389;-96
2020/12/17 21:49:44;;;;;;;40.10;19.17;;;;;;;5.30;87.70;101262.89;3594332;81;35469;-96
2020/12/17 21:54:45;;;;;;;37.63;19.27;;;;;;;5.29;87.95;101262.66;3591062;81;98275;-95
2020/12/17 21:59:45;;;;;;;43.23;19.20;;;;;;;5.36;88.18;101257.50;3584362;81;35483;-96
2020/12/17 22:04:46;;;;;;;38.43;19.20;;;;;;;5.42;88.26;101256.80;3579990;81;98128;-95
2020/12/17 22:09:47;;;;;;;38.57;19.50;;;;;;;5.49;88.30;101267.47;3543108;82;34946;-94
2020/12/17 22:14:48;;;;;;;45.87;20.27;;;;;;;5.56;88.34;101270.50;3525672;82;98825;-93
2020/12/17 22:19:49;;;;;;;43.03;21.00;;;;;;;5.58;88.28;101264.17;3587125;81;35042;-95
2020/12/17 22:24:50;;;;;;;39.80;20.23;;;;;;;5.59;88.21;101258.95;3580569;81;98374;-95
2020/12/17 22:29:51;;;;;;;40.17;19.87;;;;;;;5.54;88.26;101271.41;3584637;82;32688;-95
2020/12/17 22:34:52;;;;;;;37.50;19.17;;;;;;;5.44;88.44;101269.00;3552299;80;98653;-95
2020/12/17 22:39:55;;;;;;;38.67;18.67;;;;;;;5.39;88.66;101272.44;3623890;80;33905;-95
2020/12/17 22:44:56;;;;;;;43.48;19.42;;;;;;;5.36;88.90;101272.52;3615267;80;98800;-94
2020/12/17 22:49:57;;;;;;;34.37;18.17;;;;;;;5.43;89.15;101272.04;3621546;80;32795;-94
2020/12/17 22:54:58;;;;;;;36.27;17.13;;;;;;;5.50;89.23;101279.98;3603054;80;98635;-96
2020/12/17 23:00:00;;;;;;;36.47;18.33;;;;;;;5.63;89.25;101274.12;3586100;79;32542;-96
2020/12/17 23:05:01;;;;;;;34.63;16.37;;;;;;;5.69;89.28;101279.65;3593173;80;98262;-96
2020/12/17 23:10:05;;;;;;;34.77;17.10;;;;;;;5.76;89.31;101282.13;3590923;81;32719;-96
2020/12/17 23:15:05;;;;;;;35.95;17.70;;;;;;;5.82;89.24;101283.59;3585060;80;98923;-96
2020/12/17 23:20:06;;;;;;;35.70;18.50;;;;;;;5.82;89.36;101289.61;3594039;81;32900;-95
2020/12/17 23:25:07;;;;;;;34.60;17.40;;;;;;;5.77;89.33;101285.65;3581453;80;98130;-96
2020/12/17 23:30:08;;;;;;;40.30;16.57;;;;;;;5.71;89.42;101289.12;3599791;81;32748;-96
2020/12/17 23:35:09;;;;;;;32.90;15.90;;;;;;;5.65;89.79;101290.97;3630527;80;98341;-96
2020/12/17 23:40:10;;;;;;;35.03;17.53;;;;;;;5.63;89.97;101293.23;3560108;82;32636;-96
2020/12/17 23:45:13;;;;;;;29.77;14.47;;;;;;;5.71;90.15;101295.14;3611992;80;98525;-96
2020/12/17 23:50:14;;;;;;;33.53;15.37;;;;;;;5.78;90.16;101293.52;3683601;78;32632;-96
2020/12/17 23:55:15;;;;;;;34.20;18.23;;;;;;;5.85;90.16;101295.22;3683273;80;98513;-96
